Time;durP1;ratioP1;P1;durP2;ratioP2;P2;SDS_P1;SDS_P2;PMS_P1;PMS_P2;Temp;Humidity;BMP_temperature;BMP_pressure;BME280_temperature;BME280_humidity;BME280_pressure;Samples;Min_cycle;Max_cycle;Signal;HPM_P1;HPM_P2
2022/08/08 00:00:06;;;;;;;1.77;1.07;;;;;;;18.17;45.66;98435.44;5046071;28;20316;-68
2022/08/08 00:02:40;;;;;;;1.10;1.00;;;;;;;18.14;45.57;98425.22;5053664;28;20284;-68
2022/08/08 00:05:19;;;;;;;1.20;1.10;;;;;;;18.22;45.28;98430.94;5053338;28;20189;-68
2022/08/08 00:08:01;;;;;;;2.47;1.00;;;;;;;18.34;45.44;98444.22;5053617;28;20280;-68
2022/08/08 00:10:53;;;;;;;1.10;1.00;;;;;;;18.29;44.97;98446.84;5054026;28;20224;-68
2022/08/08 00:13:40;;;;;;;1.67;1.03;;;;;;;18.08;44.66;98456.66;5053075;28;20209;-68
2022/08/08 00:16:16;;;;;;;1.10;0.77;;;;;;;18.04;45.00;98455.53;5053138;28;20302;-68
2022/08/08 00:18:54;;;;;;;1.10;1.00;;;;;;;18.04;45.50;98450.16;5053115;28;20591;-68
2022/08/08 00:21:28;;;;;;;1.20;1.00;;;;;;;18.08;45.52;98450.44;5053186;28;20645;-68
2022/08/08 00:23:58;;;;;;;1.10;0.90;;;;;;;18.14;45.32;98449.44;5036179;28;20189;-68
2022/08/08 00:26:30;;;;;;;1.53;0.90;;;;;;;18.21;44.29;98453.53;5053135;28;20185;-68
2022/08/08 00:29:15;;;;;;;2.20;1.30;;;;;;;18.16;45.46;98452.69;5052199;28;20336;-68
2022/08/08 00:31:50;;;;;;;1.47;0.90;;;;;;;18.03;46.03;98445.84;5053084;28;20561;-68
2022/08/08 00:37:50;;;;;;;1.57;1.20;;;;;;;17.85;47.15;98459.69;5047350;28;20235;-68
2022/08/08 00:40:29;;;;;;;1.03;0.93;;;;;;;17.78;47.21;98450.22;5051713;28;20225;-68
2022/08/08 00:43:17;;;;;;;5.20;1.17;;;;;;;17.79;46.88;98460.72;5053247;28;20292;-68
2022/08/08 00:46:16;;;;;;;3.13;1.10;;;;;;;17.58;48.00;98461.56;5051784;28;20629;-68
2022/08/08 00:49:07;;;;;;;1.47;1.10;;;;;;;17.63;47.48;98464.31;5052852;28;20635;-68
2022/08/08 00:52:00;;;;;;;2.13;1.10;;;;;;;17.45;48.30;98469.22;5053218;28;20281;-68
2022/08/08 00:54:26;;;;;;;1.67;1.20;;;;;;;17.43;48.11;98469.50;5050295;28;20213;-68
2022/08/08 00:57:14;;;;;;;1.93;0.93;;;;;;;17.41;48.06;98470.81;5055708;28;20225;-68
2022/08/08 01:00:09;;;;;;;1.17;1.07;;;;;;;17.34;49.17;98472.84;5056939;28;20309;-68
2022/08/08 01:03:22;;;;;;;0.80;0.80;;;;;;;17.26;49.29;98466.03;5056831;28;20208;-68
2022/08/08 01:06:16;;;;;;;1.37;1.10;;;;;;;17.29;48.91;98467.41;5056619;28;20637;-68
2022/08/08 01:08:58;;;;;;;2.20;1.00;;;;;;;17.30;48.75;98469.03;5056511;28;20775;-68
2022/08/08 01:11:45;;;;;;;1.20;0.90;;;;;;;17.37;48.43;98470.44;5055612;28;20304;-68
2022/08/08 01:14:24;;;;;;;1.60;1.13;;;;;;;17.43;48.28;98468.66;5056390;28;20221;-68
2022/08/08 01:17:00;;;;;;;1.23;1.13;;;;;;;17.59;45.53;98463.19;5055483;28;20205;-68
2022/08/08 01:19:57;;;;;;;1.70;1.00;;;;;;;17.80;45.29;98469.56;5056245;28;20225;-68
2022/08/08 01:23:05;;;;;;;1.27;1.17;;;;;;;17.84;46.59;98465.31;5056544;28;20221;-68
2022/08/08 01:25:50;;;;;;;3.90;1.00;;;;;;;17.74;47.04;98470.59;5056283;28;20837;-68
2022/08/08 01:28:41;;;;;;;0.90;0.90;;;;;;;17.59;47.43;98470.44;5056154;28;20280;-68
2022/08/08 01:31:44;;;;;;;0.90;0.90;;;;;;;17.23;49.08;98461.16;5056145;28;20655;-68
2022/08/08 01:34:29;;;;;;;1.27;1.00;;;;;;;17.07;49.18;98470.09;5056906;28;20189;-68
2022/08/08 01:37:12;;;;;;;1.07;1.00;;;;;;;16.94;49.22;98462.41;5055801;28;20690;-68
2022/08/08 01:40:00;;;;;;;2.70;1.07;;;;;;;16.93;49.88;98465.34;5055039;28;20320;-68
2022/08/08 01:42:49;;;;;;;1.03;1.00;;;;;;;17.01;49.19;98459.53;5055882;28;20556;-68
2022/08/08 01:45:46;;;;;;;2.87;0.90;;;;;;;17.03;49.32;98463.59;5052855;28;20578;-68
2022/08/08 01:48:34;;;;;;;1.00;0.90;;;;;;;16.98;49.78;98466.22;5055811;28;20200;-68
2022/08/08 01:51:10;;;;;;;1.33;0.80;;;;;;;16.80;50.57;98471.06;5055778;28;20737;-68
2022/08/08 01:54:17;;;;;;;1.53;0.90;;;;;;;16.83;50.40;98466.00;5055999;28;20207;-68
2022/08/08 01:57:27;;;;;;;1.23;0.90;;;;;;;16.79;51.02;98470.25;5054895;28;20193;-68
2022/08/08 02:00:15;;;;;;;2.80;1.20;;;;;;;16.71;51.18;98470.69;5054372;28;20231;-68
2022/08/08 02:03:03;;;;;;;1.30;0.80;;;;;;;16.77;50.89;98475.06;5056650;28;20551;-68
2022/08/08 02:05:54;;;;;;;4.47;1.13;;;;;;;16.69;51.00;98467.44;5055847;28;20276;-68
2022/08/08 02:08:27;;;;;;;2.13;0.87;;;;;;;16.64;51.45;98470.06;5055338;28;20276;-68
2022/08/08 02:11:12;;;;;;;1.10;0.93;;;;;;;16.63;52.03;98463.06;5054241;28;20196;-68
2022/08/08 02:14:02;;;;;;;1.17;0.97;;;;;;;16.56;51.91;98467.78;5055291;28;20241;-68
2022/08/08 02:16:48;;;;;;;0.83;0.80;;;;;;;16.51;52.17;98464.25;5055582;28;20196;-68
2022/08/08 02:19:25;;;;;;;1.63;1.03;;;;;;;16.48;52.36;98457.50;5054403;28;20228;-68
2022/08/08 02:22:31;;;;;;;1.10;0.80;;;;;;;16.60;52.36;98452.81;5055212;28;20551;-68
2022/08/08 02:25:04;;;;;;;1.33;1.10;;;;;;;16.67;51.31;98444.59;5054073;28;20188;-68
2022/08/08 02:28:07;;;;;;;0.83;0.80;;;;;;;16.69;50.86;98456.69;5055334;28;20292;-67
2022/08/08 02:31:02;;;;;;;1.43;0.90;;;;;;;16.74;50.72;98450.59;5055603;28;20235;-68
2022/08/08 02:34:06;;;;;;;1.33;1.20;;;;;;;16.73;50.55;98457.84;5054854;28;20205;-68
2022/08/08 02:37:00;;;;;;;1.57;0.80;;;;;;;16.80;50.87;98455.78;5055175;28;20205;-68
2022/08/08 02:39:36;;;;;;;3.43;1.10;;;;;;;16.78;50.74;98455.22;5055076;28;20235;-68
2022/08/08 02:42:09;;;;;;;0.80;0.80;;;;;;;16.77;51.11;98450.09;5053953;28;20563;-67
2022/08/08 02:44:38;;;;;;;1.10;0.90;;;;;;;16.70;51.52;98450.25;5054679;28;20252;-68
2022/08/08 02:47:42;;;;;;;1.37;1.10;;;;;;;16.71;51.86;98453.78;5054650;28;20664;-68
2022/08/08 02:50:14;;;;;;;2.80;1.17;;;;;;;16.77;51.66;98450.09;5054546;28;20229;-68
2022/08/08 02:53:14;;;;;;;1.20;0.90;;;;;;;16.79;51.42;98456.03;5054890;28;20296;-68
2022/08/08 02:56:02;;;;;;;1.07;0.97;;;;;;;16.87;51.47;98453.72;5054797;28;20196;-68
2022/08/08 02:59:02;;;;;;;1.13;1.00;;;;;;;16.72;51.93;98450.03;5054340;28;20229;-68
2022/08/08 03:01:50;;;;;;;2.50;1.00;;;;;;;16.50;52.82;98454.53;5053179;28;20640;-68
2022/08/08 03:04:38;;;;;;;1.23;1.10;;;;;;;16.38;52.96;98457.28;5054646;28;20196;-68
2022/08/08 03:07:23;;;;;;;1.80;0.93;;;;;;;16.33;53.57;98459.09;5054617;28;20190;-68
2022/08/08 03:10:14;;;;;;;1.73;1.20;;;;;;;16.17;53.58;98460.75;5054057;28;20712;-68
2022/08/08 03:13:18;;;;;;;1.10;0.93;;;;;;;16.06;53.31;98463.50;5054211;28;20213;-68
2022/08/08 03:15:53;;;;;;;1.90;0.93;;;;;;;16.14;52.44;98465.75;5054306;28;20232;-68
2022/08/08 03:18:44;;;;;;;1.10;1.10;;;;;;;16.03;53.26;98475.53;5053151;28;20300;-68
2022/08/08 03:21:11;;;;;;;2.40;1.20;;;;;;;16.00;53.77;98481.38;5033753;28;20571;-68
2022/08/08 03:23:37;;;;;;;0.97;0.97;;;;;;;15.93;53.60;98491.44;5054200;28;20206;-68
2022/08/08 03:26:03;;;;;;;1.20;1.00;;;;;;;15.96;53.66;98480.22;5053785;28;20208;-68
2022/08/08 03:28:31;;;;;;;3.17;1.23;;;;;;;15.99;53.82;98481.59;5053964;28;20288;-68
2022/08/08 03:30:58;;;;;;;1.87;1.00;;;;;;;15.95;53.82;98481.28;5053958;28;20205;-68
2022/08/08 03:33:24;;;;;;;1.63;1.00;;;;;;;15.82;53.80;98486.97;5053417;28;20608;-68
2022/08/08 03:35:51;;;;;;;3.03;1.00;;;;;;;15.80;53.87;98488.25;5053127;28;20201;-68
2022/08/08 03:38:22;;;;;;;1.20;0.90;;;;;;;15.98;53.53;98480.00;5053510;28;20569;-68
2022/08/08 03:40:53;;;;;;;1.90;0.93;;;;;;;16.00;53.63;98488.59;5053212;28;20664;-68
2022/08/08 03:43:20;;;;;;;1.37;1.00;;;;;;;16.05;53.85;98484.13;5053488;28;20189;-68
2022/08/08 03:45:47;;;;;;;1.30;1.00;;;;;;;16.04;53.92;98490.56;5053697;28;20206;-68
2022/08/08 03:48:13;;;;;;;1.63;1.17;;;;;;;16.05;54.14;98492.19;5053646;28;20288;-68
2022/08/08 03:50:48;;;;;;;2.60;1.00;;;;;;;16.08;54.43;98504.28;5053627;28;20332;-68
2022/08/08 03:53:17;;;;;;;1.27;1.17;;;;;;;15.91;54.67;98506.97;5053290;28;20663;-68
2022/08/08 03:55:48;;;;;;;1.07;0.97;;;;;;;15.90;54.74;98497.28;5053273;28;20667;-68
2022/08/08 03:58:25;;;;;;;2.73;1.30;;;;;;;15.93;55.01;98509.41;5053241;28;20213;-68
2022/08/08 04:00:57;;;;;;;1.97;1.20;;;;;;;15.89;55.31;98509.09;5053519;28;20295;-68
2022/08/08 04:03:24;;;;;;;1.60;1.30;;;;;;;15.87;55.69;98521.91;5053338;28;20205;-68
2022/08/08 04:05:51;;;;;;;1.80;1.37;;;;;;;15.88;55.32;98518.16;5053039;28;20247;-68
2022/08/08 04:08:24;;;;;;;1.50;1.40;;;;;;;15.89;55.66;98516.31;5053493;28;20239;-68
2022/08/08 04:10:52;;;;;;;2.60;1.37;;;;;;;15.86;56.21;98514.91;5053453;28;20209;-68
2022/08/08 04:13:20;;;;;;;2.70;1.20;;;;;;;15.86;56.42;98520.28;5053067;28;20690;-68
2022/08/08 04:15:47;;;;;;;2.07;1.60;;;;;;;15.88;56.30;98523.53;5053334;28;20205;-68
2022/08/08 04:18:14;;;;;;;1.77;1.30;;;;;;;15.90;56.39;98518.75;5052901;28;20267;-68
2022/08/08 04:20:40;;;;;;;2.23;1.30;;;;;;;15.66;57.96;98525.28;5053082;28;20251;-68
2022/08/08 04:23:07;;;;;;;2.37;1.27;;;;;;;15.65;57.87;98526.31;5053177;28;20205;-68
2022/08/08 04:25:33;;;;;;;1.80;1.60;;;;;;;15.75;57.81;98537.22;5053215;28;20325;-68
2022/08/08 04:28:00;;;;;;;3.93;1.50;;;;;;;15.69;58.42;98529.34;5052814;28;20197;-68
2022/08/08 04:30:27;;;;;;;2.60;1.50;;;;;;;15.79;58.09;98532.22;5055165;28;20410;-68
2022/08/08 04:32:54;;;;;;;2.30;1.73;;;;;;;15.89;58.03;98541.25;5056848;28;20569;-68
2022/08/08 04:35:21;;;;;;;5.00;1.90;;;;;;;15.88;58.61;98534.25;5056702;28;20205;-68
2022/08/08 04:37:47;;;;;;;2.30;1.60;;;;;;;15.98;58.60;98539.81;5056739;28;20311;-68
2022/08/08 04:40:14;;;;;;;2.80;1.70;;;;;;;16.01;59.03;98535.84;5056668;28;20319;-68
2022/08/08 04:42:40;;;;;;;2.50;1.73;;;;;;;16.03;59.63;98542.59;5056771;28;20296;-68
2022/08/08 04:45:07;;;;;;;3.27;2.00;;;;;;;16.14;59.52;98540.88;5056570;28;20747;-68
2022/08/08 04:47:34;;;;;;;3.67;2.07;;;;;;;16.08;59.78;98555.25;5056744;28;20295;-68
2022/08/08 04:50:00;;;;;;;2.43;2.10;;;;;;;16.09;60.04;98552.34;5056325;28;20231;-68
2022/08/08 04:52:27;;;;;;;5.70;2.40;;;;;;;16.20;60.07;98554.13;5056629;28;20211;-68
2022/08/08 04:54:53;;;;;;;2.87;2.10;;;;;;;16.23;60.48;98558.19;5056519;28;20694;-68
2022/08/08 04:57:19;;;;;;;3.97;1.93;;;;;;;16.30;60.07;98554.31;5056763;28;20300;-68
2022/08/08 04:59:46;;;;;;;3.90;1.77;;;;;;;16.36;60.60;98561.38;5056537;28;20315;-68
2022/08/08 05:02:12;;;;;;;2.00;1.90;;;;;;;16.38;60.35;98564.63;5056531;28;20201;-68
2022/08/08 05:04:39;;;;;;;2.87;1.90;;;;;;;16.65;60.62;98562.16;5056287;28;20209;-71
2022/08/08 05:07:05;;;;;;;2.73;1.80;;;;;;;16.76;59.98;98564.75;5056649;28;20293;-70
2022/08/08 05:09:32;;;;;;;4.23;2.50;;;;;;;16.91;59.58;98562.28;5056481;28;20223;-68
2022/08/08 05:11:58;;;;;;;3.40;1.93;;;;;;;17.01;59.68;98567.78;5056420;28;20240;-68
2022/08/08 05:14:25;;;;;;;3.30;2.23;;;;;;;16.91;60.02;98569.50;5055745;28;20316;-68
2022/08/08 05:16:51;;;;;;;4.13;2.10;;;;;;;16.96;59.90;98565.03;5056379;28;20209;-68
2022/08/08 05:19:18;;;;;;;4.10;2.10;;;;;;;16.94;60.10;98560.97;5055530;28;20807;-68
2022/08/08 05:21:44;;;;;;;2.47;2.00;;;;;;;17.00;60.13;98560.78;5055528;28;20201;-68
2022/08/08 05:24:12;;;;;;;3.10;2.00;;;;;;;17.06;59.67;98559.78;5056352;28;20209;-68
2022/08/08 05:26:40;;;;;;;3.57;2.30;;;;;;;17.10;59.34;98563.63;5055633;28;20205;-67
2022/08/08 05:29:07;;;;;;;4.27;2.30;;;;;;;17.16;59.07;98572.56;5055350;28;20260;-68
2022/08/08 05:31:35;;;;;;;5.17;2.43;;;;;;;17.31;58.54;98570.91;5055949;28;20213;-68
2022/08/08 05:34:05;;;;;;;2.67;2.10;;;;;;;17.44;57.61;98572.44;5055308;28;20564;-68
2022/08/08 05:36:36;;;;;;;3.53;2.10;;;;;;;17.58;57.51;98579.06;5056319;28;20296;-68
2022/08/08 05:39:05;;;;;;;4.47;2.20;;;;;;;17.63;57.06;98571.03;5055437;28;20257;-68
2022/08/08 05:41:35;;;;;;;3.67;2.00;;;;;;;17.75;57.04;98569.88;5055174;28;20211;-68
2022/08/08 05:44:30;;;;;;;3.47;2.47;;;;;;;17.75;56.81;98575.25;5055531;28;20651;-68
2022/08/08 05:46:58;;;;;;;3.70;2.10;;;;;;;17.86;56.31;98581.53;5054563;28;20279;-68
2022/08/08 05:49:25;;;;;;;6.40;2.57;;;;;;;18.03;55.82;98576.88;5055635;28;20224;-68
2022/08/08 05:51:52;;;;;;;3.73;2.47;;;;;;;18.19;55.76;98579.44;5055469;28;20299;-67
2022/08/08 05:54:19;;;;;;;4.47;2.43;;;;;;;18.27;55.49;98586.28;5055436;28;20201;-68
2022/08/08 05:56:46;;;;;;;4.77;2.33;;;;;;;18.38;56.15;98585.31;5055124;28;20201;-68
2022/08/08 05:59:19;;;;;;;3.00;2.20;;;;;;;18.43;55.72;98588.06;5054928;28;20699;-68
2022/08/08 06:01:55;;;;;;;3.17;2.17;;;;;;;18.41;55.34;98588.31;5054974;28;20293;-68
2022/08/08 06:04:26;;;;;;;3.83;2.37;;;;;;;18.60;54.94;98594.13;5055283;28;20189;-68
2022/08/08 06:06:54;;;;;;;3.67;2.10;;;;;;;18.57;54.74;98592.78;5055220;28;20292;-68
2022/08/08 06:09:28;;;;;;;3.30;2.33;;;;;;;18.42;55.72;98598.00;5054954;28;20225;-68
2022/08/08 06:12:02;;;;;;;4.87;2.27;;;;;;;18.48;56.10;98590.78;5055181;28;20193;-68
2022/08/08 06:14:30;;;;;;;6.47;2.63;;;;;;;18.43;56.23;98590.75;5054649;28;20213;-68
2022/08/08 06:16:59;;;;;;;6.60;2.77;;;;;;;18.64;55.93;98590.66;5054888;28;20212;-69
2022/08/08 06:19:26;;;;;;;4.23;2.17;;;;;;;18.71;55.68;98595.81;5055740;28;20279;-69
2022/08/08 06:21:53;;;;;;;4.97;3.33;;;;;;;18.84;55.96;98598.91;5063601;28;20196;-69
2022/08/08 06:24:20;;;;;;;4.83;3.43;;;;;;;18.73;55.97;98594.50;5065595;28;20197;-69
2022/08/08 06:27:09;;;;;;;5.03;2.80;;;;;;;18.83;55.80;98605.34;5064167;28;20276;-69
2022/08/08 06:29:54;;;;;;;8.67;2.60;;;;;;;18.92;55.76;98601.09;5064849;28;20267;-68
2022/08/08 06:32:29;;;;;;;4.03;2.50;;;;;;;19.02;55.79;98600.38;5065667;28;20276;-68
2022/08/08 06:35:00;;;;;;;7.60;3.30;;;;;;;18.99;55.79;98608.97;5065496;28;20581;-68
2022/08/08 06:37:31;;;;;;;3.17;2.43;;;;;;;19.25;55.47;98606.22;5063513;28;20555;-68
2022/08/08 06:40:05;;;;;;;5.53;3.93;;;;;;;19.22;55.67;98613.97;5062901;28;20249;-68
2022/08/08 06:42:36;;;;;;;5.53;3.40;;;;;;;19.40;55.49;98616.25;5064004;28;20204;-67
2022/08/08 06:45:05;;;;;;;7.57;3.13;;;;;;;19.53;55.29;98615.78;5063074;28;20228;-67
2022/08/08 06:47:32;;;;;;;10.43;2.87;;;;;;;19.46;55.26;98615.22;5063625;28;20287;-67
2022/08/08 06:49:58;;;;;;;5.03;2.67;;;;;;;19.73;54.84;98620.47;5064674;28;20209;-68
2022/08/08 06:52:26;;;;;;;3.57;2.63;;;;;;;19.67;55.41;98612.34;5063038;28;20197;-67
2022/08/08 06:54:54;;;;;;;7.90;4.07;;;;;;;19.69;55.07;98626.38;5061530;28;20212;-69
2022/08/08 06:57:23;;;;;;;6.13;4.40;;;;;;;19.72;54.79;98627.78;5070679;28;20695;-68
2022/08/08 06:59:51;;;;;;;4.90;3.03;;;;;;;19.72;54.92;98624.25;5073691;28;20228;-68
2022/08/08 07:02:23;;;;;;;5.90;2.70;;;;;;;20.01;54.89;98622.72;5073845;28;20204;-67
2022/08/08 07:05:02;;;;;;;7.10;4.73;;;;;;;19.84;55.03;98622.94;5074016;28;20200;-67
2022/08/08 07:07:41;;;;;;;4.83;3.10;;;;;;;19.77;55.02;98626.97;5073986;28;20231;-68
2022/08/08 07:10:09;;;;;;;5.63;2.87;;;;;;;20.11;54.38;98622.81;5073849;28;20220;-68
2022/08/08 07:12:40;;;;;;;5.73;2.60;;;;;;;20.22;54.09;98627.16;5073657;28;20570;-69
2022/08/08 07:15:10;;;;;;;3.60;2.40;;;;;;;20.26;54.14;98622.84;5073705;28;20650;-69
2022/08/08 07:17:48;;;;;;;3.33;2.10;;;;;;;20.33;53.88;98626.91;5074046;28;20228;-69
2022/08/08 07:20:21;;;;;;;4.37;2.87;;;;;;;20.48;53.12;98628.81;5073799;28;20770;-70
2022/08/08 07:23:11;;;;;;;4.47;2.67;;;;;;;20.67;53.43;98638.03;5073672;28;20595;-69
2022/08/08 07:25:44;;;;;;;3.33;2.23;;;;;;;20.84;52.64;98630.47;5074536;28;20193;-69
2022/08/08 07:28:15;;;;;;;3.27;2.73;;;;;;;20.78;52.48;98631.53;5073382;28;20667;-69
2022/08/08 07:30:43;;;;;;;5.00;2.70;;;;;;;20.79;52.72;98630.47;5073384;28;20647;-69
2022/08/08 07:33:11;;;;;;;2.80;2.50;;;;;;;20.90;52.81;98629.38;5073860;28;20287;-70
2022/08/08 07:35:39;;;;;;;6.00;3.07;;;;;;;20.89;52.40;98635.88;5073817;28;20214;-67
2022/08/08 07:38:08;;;;;;;4.27;2.70;;;;;;;21.05;52.02;98629.38;5073605;28;20205;-69
2022/08/08 07:40:36;;;;;;;4.07;2.40;;;;;;;21.01;51.94;98631.00;5073718;28;20315;-68
2022/08/08 07:43:04;;;;;;;2.80;2.23;;;;;;;20.97;52.13;98628.03;5073458;28;20209;-68
2022/08/08 07:45:31;;;;;;;4.97;2.50;;;;;;;20.98;51.96;98634.28;5074157;28;20204;-68
2022/08/08 07:47:57;;;;;;;4.47;2.40;;;;;;;21.41;51.69;98626.34;5073649;28;20299;-68
2022/08/08 07:50:27;;;;;;;4.10;3.10;;;;;;;21.64;51.57;98628.47;5073318;28;20740;-68
2022/08/08 07:52:59;;;;;;;2.57;2.37;;;;;;;21.52;51.12;98629.84;5073591;28;20204;-68
2022/08/08 07:55:28;;;;;;;4.30;2.43;;;;;;;21.75;50.79;98623.84;5073266;28;20515;-68
2022/08/08 07:57:54;;;;;;;8.07;5.67;;;;;;;21.70;51.01;98626.59;5073254;28;20208;-69
2022/08/08 08:00:21;;;;;;;6.33;3.13;;;;;;;21.82;50.87;98635.19;5074053;28;20235;-68
2022/08/08 08:03:07;;;;;;;6.73;2.43;;;;;;;22.08;50.38;98639.41;5073426;28;20205;-69
2022/08/08 08:05:42;;;;;;;7.73;6.27;;;;;;;22.00;50.49;98638.09;5073160;28;20193;-69
2022/08/08 08:08:17;;;;;;;39.63;35.60;;;;;;;21.90;50.45;98637.31;5073197;28;20192;-69
2022/08/08 08:10:46;;;;;;;3.30;2.43;;;;;;;22.21;49.79;98645.00;5073334;28;20680;-69
2022/08/08 08:13:53;;;;;;;4.00;2.30;;;;;;;22.41;49.59;98646.78;5073052;28;20238;-68
2022/08/08 08:16:26;;;;;;;5.60;4.70;;;;;;;22.34;49.70;98643.59;5064331;28;20742;-69
2022/08/08 08:19:01;;;;;;;2.40;2.20;;;;;;;22.47;49.72;98643.00;5073209;28;20228;-68
2022/08/08 08:21:39;;;;;;;3.30;2.00;;;;;;;22.65;48.35;98648.56;5073451;28;20207;-68
2022/08/08 08:24:06;;;;;;;4.40;2.67;;;;;;;22.67;48.90;98645.56;5073139;28;20220;-69
2022/08/08 08:26:32;;;;;;;6.50;5.83;;;;;;;22.45;48.89;98645.16;5072676;28;20234;-68
2022/08/08 08:28:59;;;;;;;7.97;5.70;;;;;;;22.72;48.69;98648.25;5072694;28;20315;-68
2022/08/08 08:31:26;;;;;;;4.60;2.80;;;;;;;22.96;47.42;98649.13;5072535;28;20701;-69
2022/08/08 08:33:53;;;;;;;2.75;2.33;;;;;;;23.16;47.42;98643.53;5072461;28;20295;-69
2022/08/08 08:36:19;;;;;;;2.70;2.13;;;;;;;23.37;46.29;98643.06;5072585;28;20295;-69
2022/08/08 08:38:46;;;;;;;3.00;2.20;;;;;;;23.17;46.30;98642.44;5072910;28;20292;-69
2022/08/08 08:41:14;;;;;;;3.92;2.20;;;;;;;23.03;46.43;98647.72;5072899;28;20312;-70
2022/08/08 08:43:41;;;;;;;4.07;2.35;;;;;;;23.30;46.40;98645.34;5072793;28;20204;-70
2022/08/08 08:46:10;;;;;;;3.10;2.10;;;;;;;23.31;45.68;98643.41;5072976;28;20204;-70
2022/08/08 08:48:37;;;;;;;3.67;2.35;;;;;;;23.47;45.53;98648.41;5072490;28;20647;-69
2022/08/08 08:51:05;;;;;;;3.63;2.15;;;;;;;23.66;45.03;98645.75;5072889;28;20201;-69
2022/08/08 08:53:36;;;;;;;2.42;2.22;;;;;;;23.24;45.28;98643.75;5072771;28;20204;-69
2022/08/08 08:56:04;;;;;;;3.92;2.10;;;;;;;23.48;45.57;98638.38;5073095;28;20199;-70
2022/08/08 08:58:35;;;;;;;5.18;2.88;;;;;;;23.78;44.78;98644.25;5072677;28;20295;-69
2022/08/08 09:01:04;;;;;;;1.90;1.80;;;;;;;23.87;44.11;98637.09;5073001;28;20184;-69
2022/08/08 09:03:31;;;;;;;3.80;1.90;;;;;;;23.95;43.87;98638.38;5072907;28;20208;-69
2022/08/08 09:05:59;;;;;;;6.18;1.90;;;;;;;24.21;43.25;98640.50;5071723;28;20210;-69
2022/08/08 09:08:28;;;;;;;1.80;1.70;;;;;;;24.18;42.71;98641.06;5072723;28;20295;-69
2022/08/08 09:10:55;;;;;;;1.77;1.60;;;;;;;24.41;42.88;98644.81;5072689;28;20224;-69
2022/08/08 09:13:22;;;;;;;2.47;2.17;;;;;;;24.52;42.08;98638.13;5072238;28;20265;-69
2022/08/08 09:15:49;;;;;;;2.17;1.85;;;;;;;24.55;42.28;98641.06;5072787;28;20299;-69
2022/08/08 09:18:16;;;;;;;2.78;1.85;;;;;;;24.55;42.16;98643.78;5074333;28;20301;-69
2022/08/08 09:20:45;;;;;;;2.45;1.80;;;;;;;24.50;41.54;98645.78;5076056;28;20228;-69
2022/08/08 09:23:13;;;;;;;2.03;1.92;;;;;;;24.30;42.08;98638.75;5076312;28;20211;-69
2022/08/08 09:25:46;;;;;;;3.85;2.08;;;;;;;24.57;42.25;98638.88;5075932;28;20295;-69
2022/08/08 09:28:13;;;;;;;2.55;1.70;;;;;;;24.83;41.29;98640.13;5075869;28;20639;-69
2022/08/08 09:30:43;;;;;;;5.18;1.63;;;;;;;24.78;40.39;98636.69;5075668;28;20304;-69
2022/08/08 09:33:19;;;;;;;2.53;1.65;;;;;;;25.00;40.08;98645.00;5076565;28;20204;-68
2022/08/08 09:35:47;;;;;;;2.42;1.63;;;;;;;25.19;40.30;98645.78;5076256;28;20269;-67
2022/08/08 09:38:24;;;;;;;2.95;1.95;;;;;;;25.40;39.80;98637.00;5076030;28;20296;-67
2022/08/08 09:40:56;;;;;;;2.78;1.80;;;;;;;25.39;38.44;98632.66;5075763;28;20295;-68
2022/08/08 09:43:34;;;;;;;1.92;1.80;;;;;;;25.41;38.89;98629.59;5074472;28;20523;-68
2022/08/08 09:46:02;;;;;;;3.42;1.90;;;;;;;25.68;37.63;98625.00;5075920;28;20192;-67
2022/08/08 09:48:37;;;;;;;2.33;1.75;;;;;;;25.90;37.94;98632.47;5075624;28;20208;-68
2022/08/08 09:51:04;;;;;;;2.15;1.92;;;;;;;25.87;37.34;98627.63;5075404;28;20192;-68
2022/08/08 09:53:36;;;;;;;1.75;1.65;;;;;;;25.81;37.14;98623.38;5075541;28;20258;-67
2022/08/08 09:56:04;;;;;;;1.98;1.73;;;;;;;25.85;36.74;98624.38;5075849;28;20204;-68
2022/08/08 09:58:38;;;;;;;2.72;1.95;;;;;;;25.49;37.70;98620.75;5075187;28;20718;-68
2022/08/08 10:01:06;;;;;;;2.97;1.67;;;;;;;26.01;37.28;98621.06;5074295;28;20212;-68
2022/08/08 10:03:36;;;;;;;2.58;1.80;;;;;;;26.03;37.26;98616.13;5075475;28;20208;-68
2022/08/08 10:06:19;;;;;;;2.42;1.60;;;;;;;26.59;36.50;98613.00;5075440;28;20307;-68
2022/08/08 10:08:50;;;;;;;2.65;1.90;;;;;;;26.23;36.78;98626.59;5075139;28;20319;-68
2022/08/08 10:11:19;;;;;;;1.70;1.60;;;;;;;26.35;36.52;98623.34;5075272;28;20287;-68
2022/08/08 10:13:59;;;;;;;1.83;1.65;;;;;;;26.57;35.54;98621.50;5074809;28;20678;-68
2022/08/08 10:16:41;;;;;;;3.83;1.77;;;;;;;26.53;34.96;98617.75;5075378;28;20283;-68
2022/08/08 10:19:10;;;;;;;1.65;1.55;;;;;;;26.36;35.26;98619.50;5075028;28;20262;-68
2022/08/08 10:21:38;;;;;;;2.40;2.20;;;;;;;26.39;35.98;98619.69;5074944;28;20212;-68
2022/08/08 10:24:10;;;;;;;2.92;1.50;;;;;;;26.70;36.09;98620.63;5075079;28;20207;-68
2022/08/08 10:26:44;;;;;;;1.73;1.60;;;;;;;26.72;35.71;98618.41;5074998;28;20215;-67
2022/08/08 10:29:12;;;;;;;2.90;1.90;;;;;;;26.58;35.44;98605.91;5074572;28;20223;-68
2022/08/08 10:34:26;;;;;;;2.28;1.90;;;;;;;26.54;35.73;98605.69;5074493;28;20175;-68
2022/08/08 10:36:53;;;;;;;1.88;1.77;;;;;;;26.94;35.59;98603.94;5074071;28;20295;-68
2022/08/08 10:39:21;;;;;;;4.18;1.88;;;;;;;26.91;35.70;98610.03;5074327;28;20220;-68
2022/08/08 10:41:57;;;;;;;3.35;1.60;;;;;;;27.30;34.22;98610.13;5074076;28;20205;-68
2022/08/08 10:44:32;;;;;;;1.58;1.48;;;;;;;27.27;33.39;98604.50;5074484;28;20207;-68
2022/08/08 10:47:09;;;;;;;2.38;1.65;;;;;;;27.09;34.19;98603.56;5074707;28;20189;-68
2022/08/08 10:49:36;;;;;;;3.17;1.80;;;;;;;27.08;34.33;98600.03;5074432;28;20227;-69
2022/08/08 10:52:03;;;;;;;1.60;1.50;;;;;;;27.33;33.88;98600.50;5074483;28;20219;-69
2022/08/08 10:54:29;;;;;;;5.15;1.67;;;;;;;27.32;32.17;98596.97;5074447;28;20207;-68
2022/08/08 10:56:58;;;;;;;1.40;1.33;;;;;;;27.45;32.13;98609.69;5074570;28;20208;-69
2022/08/08 10:59:25;;;;;;;1.70;1.60;;;;;;;27.02;32.47;98605.91;5074295;28;20283;-68
2022/08/08 11:01:52;;;;;;;2.75;1.55;;;;;;;26.99;33.39;98596.44;5074484;28;20287;-69
2022/08/08 11:04:19;;;;;;;1.60;1.50;;;;;;;27.48;31.96;98595.44;5074261;28;20204;-69
2022/08/08 11:06:45;;;;;;;1.33;1.23;;;;;;;27.51;32.21;98597.53;5073996;28;20293;-68
2022/08/08 11:09:13;;;;;;;1.98;1.33;;;;;;;27.77;30.62;98595.72;5073798;28;20225;-70
2022/08/08 11:11:41;;;;;;;1.58;1.30;;;;;;;27.88;30.19;98582.56;5073838;28;20562;-68
2022/08/08 11:14:09;;;;;;;1.23;1.20;;;;;;;27.82;30.20;98583.84;5073743;28;20307;-68
2022/08/08 11:16:39;;;;;;;1.48;1.10;;;;;;;27.90;29.88;98586.59;5074037;28;20291;-68
2022/08/08 11:19:06;;;;;;;2.35;1.15;;;;;;;27.59;29.50;98591.31;5073931;28;20240;-68
2022/08/08 11:21:40;;;;;;;1.75;1.20;;;;;;;27.39;29.60;98575.47;5073945;28;20286;-68
2022/08/08 11:24:08;;;;;;;2.08;1.30;;;;;;;27.60;28.46;98579.25;5073751;28;20212;-69
2022/08/08 11:26:37;;;;;;;1.55;1.40;;;;;;;27.62;28.93;98574.28;5073489;28;20213;-69
2022/08/08 11:29:06;;;;;;;1.52;1.40;;;;;;;27.77;28.48;98567.56;5073269;28;20711;-68
2022/08/08 11:31:36;;;;;;;1.77;1.30;;;;;;;27.41;28.91;98566.97;5073704;28;20211;-68
2022/08/08 11:34:05;;;;;;;1.38;1.27;;;;;;;27.48;28.81;98559.91;5072495;28;20184;-69
2022/08/08 11:36:33;;;;;;;2.00;1.30;;;;;;;27.65;28.51;98567.38;5073499;28;20291;-69
2022/08/08 11:39:00;;;;;;;1.85;1.33;;;;;;;27.65;28.92;98564.63;5072970;28;20221;-68
2022/08/08 11:41:28;;;;;;;2.95;1.30;;;;;;;26.81;29.51;98561.16;5073030;28;20730;-68
2022/08/08 11:43:55;;;;;;;2.20;1.30;;;;;;;27.02;30.63;98556.78;5073185;28;20208;-69
2022/08/08 11:46:26;;;;;;;1.70;1.60;;;;;;;27.45;29.13;98566.00;5073738;28;20228;-69
2022/08/08 11:48:54;;;;;;;1.30;1.30;;;;;;;27.26;29.24;98562.72;5073097;28;20594;-69
2022/08/08 11:51:23;;;;;;;1.90;1.10;;;;;;;27.67;29.09;98562.41;5072613;28;20239;-68
2022/08/08 11:53:55;;;;;;;2.45;1.60;;;;;;;27.77;30.10;98557.47;5073560;28;20266;-71
2022/08/08 11:56:23;;;;;;;2.65;1.30;;;;;;;27.97;29.37;98567.00;5073906;28;20189;-68
2022/08/08 11:58:50;;;;;;;2.45;1.20;;;;;;;27.81;29.01;98565.84;5073187;28;20260;-68
2022/08/08 12:01:17;;;;;;;2.22;1.48;;;;;;;27.60;29.63;98551.94;5073358;28;20278;-69
2022/08/08 12:03:50;;;;;;;1.58;1.38;;;;;;;27.78;29.66;98555.50;5073386;28;20215;-69
2022/08/08 12:06:18;;;;;;;1.65;1.35;;;;;;;28.07;28.90;98551.09;5073637;28;20209;-69
2022/08/08 12:08:45;;;;;;;1.20;1.10;;;;;;;28.32;28.42;98558.53;5072827;28;20225;-69
2022/08/08 12:11:18;;;;;;;2.03;1.30;;;;;;;27.96;28.45;98554.44;5072893;28;20663;-69